Forside
METAR-TAF:

METAR-TAF

Lufthavne :

Nebraska City Municipal Airport

Nebraska City, Nebraska, USA

Breddekreds: 40-36N, længdekreds: 095-51W, højde: 354 m

Aktuelle vejr

Denne rapport blev lavet for 17 minutter siden, kl. 22:15 UTC
Vind 12 kt fra syd
Temperatur 13°C
Fugtighed 38%
Tryk 1014 hPa
Sigt: 16.1 km
skyfri

METAR: KAFK 162215Z AUTO 18012KT 10SM CLR 13/M01 A2995 RMK AO2 T01271015

Tid: 16:32 (22:32 UTC)


TAF: fraværende

Vejrobservationer og prognoser fra mere end 4000 lufthavne (METAR og TAF).

De gule og røde prikker repræsenterer de meteorologiske stationer.

Flyt musen over at se navnet på stationen.

Så klik over at se vejr observationer og prognoser.

At skifte det kort: Klik på de grønne knapper med et sort kors for at zoome ind; på den grønne knap med en bindestreg for at zoome ud; eller på de grønne pile for tilstødende kort.


METAR-TAF: